LGKZ/KZI METAR and TAF weather

Enter ICAO airport designator
Station Type Date Time Source
LGKZ METAR 2022/12/08 11:50 UTC NOAA

LGKZ 081150Z 00000KT 9999 SCT002 SCT020 BKN070 12/08 Q1015


Station Type Date Time Source
LGKZ Decoded METAR 2022/12/08 11:50 UTC NOAA

Kozani Airport , Greece (LGKZ) 40-18N 021-47E 627M
Dec 08, 2022 - 06:50 AM EST / 2022.12.08 1150 UTC
Wind: Calm:0
Visibility: greater than 7 mile(s):0
Sky conditions: mostly cloudy
Temperature: 53 F (12 C)
Dew Point: 46 F (8 C)
Relative Humidity: 76%
Pressure (altimeter): 29.97 in. Hg (1015 hPa)
ob: LGKZ 081150Z 00000KT 9999 SCT002 SCT020 BKN070 12/08 Q1015
cycle: 12

Station Type Date Time Source
LGKZ TAF UTC NOAA

Error!

Example: see airport list